Time;durP1;ratioP1;P1;durP2;ratioP2;P2;SDS_P1;SDS_P2;PMS_P1;PMS_P2;Temp;Humidity;BMP_temperature;BMP_pressure;BME280_temperature;BME280_humidity;BME280_pressure;Samples;Min_cycle;Max_cycle;Signal;HPM_P1;HPM_P2
2022/11/21 00:00:00;;;;;;;47.00;18.77;;;1.10;99.90;;;;;;5057180;28;20411;-85
2022/11/21 00:02:26;;;;;;;47.05;19.67;;;1.20;99.90;;;;;;5055346;28;20496;-84
2022/11/21 00:04:52;;;;;;;45.47;19.15;;;1.20;99.90;;;;;;5070595;28;20085;-84
2022/11/21 00:07:17;;;;;;;43.85;19.40;;;1.10;99.90;;;;;;5044996;28;20052;-83
2022/11/21 00:09:43;;;;;;;48.45;18.98;;;1.10;99.90;;;;;;5055484;28;20067;-85
2022/11/21 00:12:09;;;;;;;44.08;17.58;;;1.10;99.90;;;;;;5036220;28;20495;-84
2022/11/21 00:14:34;;;;;;;40.65;16.58;;;1.10;99.90;;;;;;5054694;28;20037;-81
2022/11/21 00:17:00;;;;;;;43.28;16.83;;;1.10;99.90;;;;;;5053930;28;20067;-85
2022/11/21 00:19:26;;;;;;;37.00;16.15;;;1.10;99.90;;;;;;5056108;28;20050;-84
2022/11/21 00:21:51;;;;;;;42.13;16.35;;;1.20;99.90;;;;;;5051684;28;20452;-79
2022/11/21 00:24:17;;;;;;;43.35;16.05;;;1.20;99.90;;;;;;5062157;28;20037;-83
2022/11/21 00:26:43;;;;;;;41.53;16.73;;;1.20;99.90;;;;;;5064400;28;20049;-85
2022/11/21 00:29:09;;;;;;;40.83;15.80;;;1.20;99.90;;;;;;5067868;28;20063;-83
2022/11/21 00:31:34;;;;;;;38.10;15.88;;;1.20;99.90;;;;;;5069061;28;20113;-78
2022/11/21 00:34:00;;;;;;;37.88;15.80;;;1.20;99.90;;;;;;5063965;28;20052;-82
2022/11/21 00:36:26;;;;;;;40.03;15.95;;;1.20;99.90;;;;;;5063694;28;20041;-85
2022/11/21 00:38:51;;;;;;;38.95;15.95;;;1.20;99.90;;;;;;5060458;28;20057;-85
2022/11/21 00:41:17;;;;;;;41.97;16.85;;;1.20;99.90;;;;;;5059713;28;20055;-84
2022/11/21 00:43:43;;;;;;;42.03;15.13;;;1.20;99.90;;;;;;5054415;28;20132;-85
2022/11/21 00:46:08;;;;;;;40.38;17.23;;;1.20;99.90;;;;;;5050170;28;20045;-86
2022/11/21 00:48:34;;;;;;;42.45;16.58;;;1.20;99.90;;;;;;5057935;28;20076;-84
2022/11/21 00:51:00;;;;;;;39.85;16.13;;;1.20;99.90;;;;;;5054458;28;20076;-84
2022/11/21 00:53:26;;;;;;;41.85;16.23;;;1.20;99.90;;;;;;5048056;28;20044;-85
2022/11/21 00:55:51;;;;;;;43.35;16.48;;;1.20;99.90;;;;;;5045652;28;20036;-86
2022/11/21 00:58:17;;;;;;;40.38;17.13;;;1.20;99.90;;;;;;5056180;28;20041;-82
2022/11/21 01:00:43;;;;;;;34.97;15.85;;;1.20;99.90;;;;;;5061815;28;20048;-84
2022/11/21 01:03:09;;;;;;;41.22;16.08;;;1.10;99.90;;;;;;5057502;28;20148;-85
2022/11/21 01:05:34;;;;;;;44.10;17.48;;;1.10;99.90;;;;;;5026931;28;20140;-84
2022/11/21 01:08:00;;;;;;;40.10;17.27;;;1.10;99.90;;;;;;5050810;28;20044;-84
2022/11/21 01:10:26;;;;;;;42.22;17.70;;;1.00;99.90;;;;;;5033824;28;20069;-82
2022/11/21 01:12:51;;;;;;;40.80;17.08;;;1.00;99.90;;;;;;5033307;28;20307;-84
2022/11/21 01:15:17;;;;;;;47.17;17.48;;;1.10;99.90;;;;;;5031980;28;20170;-80
2022/11/21 01:17:43;;;;;;;44.35;17.67;;;1.10;99.90;;;;;;5031747;28;20065;-84
2022/11/21 01:20:09;;;;;;;41.20;17.08;;;1.00;99.90;;;;;;5034013;28;20500;-86
2022/11/21 01:22:34;;;;;;;45.70;16.75;;;1.00;99.90;;;;;;5031043;28;20038;-86
2022/11/21 01:25:00;;;;;;;42.25;16.88;;;1.00;99.90;;;;;;5014258;28;20068;-84
2022/11/21 01:27:26;;;;;;;43.42;17.20;;;1.10;99.90;;;;;;5025156;28;20052;-85
2022/11/21 01:29:52;;;;;;;40.33;16.45;;;1.10;99.90;;;;;;5033395;28;20457;-85
2022/11/21 01:32:17;;;;;;;43.00;17.00;;;1.10;99.90;;;;;;5031782;28;20076;-86
2022/11/21 01:34:43;;;;;;;44.83;17.77;;;1.10;99.90;;;;;;5015531;28;20057;-83
2022/11/21 01:37:09;;;;;;;37.05;16.52;;;1.10;99.90;;;;;;5012643;28;20049;-85
2022/11/21 01:39:34;;;;;;;42.22;17.20;;;1.10;99.90;;;;;;5033205;28;20049;-85
2022/11/21 01:42:00;;;;;;;43.78;17.63;;;1.20;99.90;;;;;;5030090;28;20056;-79
2022/11/21 01:44:48;;;;;;;42.03;17.75;;;1.10;99.90;;;;;;5030706;28;20057;-83
2022/11/21 01:47:15;;;;;;;40.05;16.45;;;1.20;99.90;;;;;;5028366;28;20183;-84
2022/11/21 01:49:41;;;;;;;37.85;16.77;;;1.10;99.90;;;;;;5033072;28;20075;-84
2022/11/21 01:52:27;;;;;;;42.35;16.88;;;1.20;99.90;;;;;;5030391;28;20049;-84
2022/11/21 01:55:01;;;;;;;42.10;17.90;;;1.20;99.90;;;;;;5038210;28;20076;-80
2022/11/21 01:57:32;;;;;;;45.00;17.85;;;1.20;99.90;;;;;;5048045;28;20179;-82
2022/11/21 02:00:20;;;;;;;41.00;17.50;;;1.20;99.90;;;;;;5044358;28;20049;-85
2022/11/21 02:02:52;;;;;;;44.30;16.65;;;1.20;99.90;;;;;;5037179;28;20706;-84
2022/11/21 02:05:24;;;;;;;42.58;16.98;;;1.20;99.90;;;;;;5028355;28;20103;-83
2022/11/21 02:07:54;;;;;;;40.10;17.25;;;1.20;99.90;;;;;;5019972;28;20049;-84
2022/11/21 02:10:21;;;;;;;40.58;16.35;;;1.20;99.90;;;;;;5066325;28;20056;-84
2022/11/21 02:12:50;;;;;;;45.50;16.75;;;1.20;99.90;;;;;;5054532;28;20103;-85
2022/11/21 02:15:28;;;;;;;40.55;16.67;;;1.20;99.90;;;;;;5055966;28;20092;-83
2022/11/21 02:17:54;;;;;;;;;;;1.20;99.90;;;;;;5052859;28;20046;-83
2022/11/21 02:20:23;;;;;;;39.67;16.15;;;1.20;99.90;;;;;;5055439;28;19925;-85
2022/11/21 02:23:25;;;;;;;46.95;17.42;;;1.30;99.90;;;;;;5055478;28;20044;-82
2022/11/21 02:25:52;;;;;;;44.38;17.60;;;1.20;99.90;;;;;;5039770;28;20048;-82
2022/11/21 02:28:19;;;;;;;;;;;1.30;99.90;;;;;;5052337;28;20040;-83
2022/11/21 02:30:45;;;;;;;41.50;17.77;;;1.30;99.90;;;;;;5076014;28;19988;-86
2022/11/21 02:33:12;;;;;;;44.38;16.98;;;1.20;99.90;;;;;;5055454;28;20193;-85
2022/11/21 02:35:38;;;;;;;42.22;16.83;;;1.20;99.90;;;;;;5074413;28;20044;-84
2022/11/21 02:38:19;;;;;;;40.17;16.95;;;1.20;99.90;;;;;;5055656;28;20044;-83
2022/11/21 02:40:57;;;;;;;41.25;16.08;;;1.30;99.90;;;;;;5062034;28;20040;-85
2022/11/21 02:43:55;;;;;;;38.63;16.65;;;1.20;99.90;;;;;;5051158;28;20123;-84
2022/11/21 02:46:21;;;;;;;39.00;16.80;;;1.20;99.90;;;;;;5063958;28;20056;-83
2022/11/21 02:48:47;;;;;;;43.67;17.13;;;1.20;99.90;;;;;;5052083;28;20048;-80
2022/11/21 02:51:13;;;;;;;45.13;17.92;;;1.20;99.90;;;;;;5054221;28;20052;-81
2022/11/21 02:53:39;;;;;;;39.47;16.27;;;1.20;99.90;;;;;;5042996;28;20375;-78
2022/11/21 02:56:04;;;;;;;41.78;16.95;;;1.20;99.90;;;;;;5055412;28;20060;-84
2022/11/21 02:58:30;;;;;;;40.78;16.92;;;1.20;99.90;;;;;;5055278;28;20080;-85
2022/11/21 03:00:56;;;;;;;38.63;16.27;;;1.20;99.90;;;;;;5060543;28;20090;-85
2022/11/21 03:03:22;;;;;;;38.85;17.05;;;1.30;99.90;;;;;;5082106;28;20079;-84
2022/11/21 03:05:48;;;;;;;43.03;17.02;;;1.30;99.90;;;;;;5082478;28;20040;-83
2022/11/21 03:08:13;;;;;;;43.45;18.27;;;1.20;99.90;;;;;;5050638;28;20064;-78
2022/11/21 03:10:39;;;;;;;40.08;17.05;;;1.30;99.90;;;;;;5082872;28;20048;-82
2022/11/21 03:13:05;;;;;;;43.83;17.65;;;1.30;99.90;;;;;;5089560;28;20033;-82
2022/11/21 03:15:33;;;;;;;39.85;16.10;;;1.30;99.90;;;;;;5058271;28;20044;-80
2022/11/21 03:18:01;;;;;;;37.60;15.52;;;1.20;99.90;;;;;;5056904;28;20048;-85
2022/11/21 03:20:31;;;;;;;41.47;16.77;;;1.30;99.90;;;;;;5090440;28;20048;-80
2022/11/21 03:22:57;;;;;;;40.90;16.77;;;1.20;99.90;;;;;;5085349;28;20045;-84
2022/11/21 03:25:23;;;;;;;38.67;15.93;;;1.10;99.90;;;;;;5073475;28;20036;-76
2022/11/21 03:27:52;;;;;;;42.10;16.95;;;1.20;99.90;;;;;;5074749;28;20063;-72
2022/11/21 03:30:22;;;;;;;41.58;16.48;;;1.10;99.90;;;;;;5057745;28;20084;-72
2022/11/21 03:32:49;;;;;;;40.50;16.25;;;1.10;99.90;;;;;;5075593;28;20044;-72
2022/11/21 03:35:16;;;;;;;40.42;16.85;;;1.10;99.90;;;;;;5057086;28;20106;-72
2022/11/21 03:37:42;;;;;;;39.53;16.20;;;1.00;99.90;;;;;;5075301;28;20047;-69
2022/11/21 03:40:08;;;;;;;36.22;15.85;;;1.00;99.90;;;;;;5075220;28;20079;-76
2022/11/21 03:42:33;;;;;;;39.90;16.90;;;1.00;99.90;;;;;;5056950;28;20053;-72
2022/11/21 03:44:59;;;;;;;41.67;17.30;;;1.00;99.90;;;;;;5074960;28;20056;-72
2022/11/21 03:47:26;;;;;;;40.42;16.10;;;1.10;99.90;;;;;;5024555;28;20048;-72
2022/11/21 03:49:52;;;;;;;40.53;17.27;;;1.00;99.90;;;;;;5056892;28;20048;-72
2022/11/21 03:52:18;;;;;;;42.60;17.23;;;1.00;99.90;;;;;;5074794;28;20142;-72
2022/11/21 03:54:43;;;;;;;42.70;17.08;;;1.00;99.90;;;;;;5040976;28;20129;-72
2022/11/21 03:57:09;;;;;;;41.67;17.35;;;0.90;99.90;;;;;;5040400;28;20048;-73
2022/11/21 03:59:35;;;;;;;41.92;17.17;;;0.90;99.90;;;;;;5075103;28;20044;-72
2022/11/21 04:02:00;;;;;;;44.20;18.25;;;0.80;99.90;;;;;;5056865;28;20067;-69
2022/11/21 04:04:26;;;;;;;44.78;17.40;;;0.80;99.90;;;;;;5040251;28;20047;-72
2022/11/21 04:06:52;;;;;;;44.25;17.73;;;0.80;99.90;;;;;;5024494;28;20048;-70
2022/11/21 04:09:17;;;;;;;42.83;17.33;;;0.80;99.90;;;;;;5056664;28;20518;-69
2022/11/21 04:11:43;;;;;;;41.13;17.38;;;0.70;99.90;;;;;;5040196;28;20067;-70
2022/11/21 04:14:09;;;;;;;45.00;17.92;;;0.70;99.90;;;;;;5057244;28;20036;-69
2022/11/21 04:16:35;;;;;;;43.22;17.77;;;0.60;99.90;;;;;;5056359;28;20053;-70
2022/11/21 04:19:00;;;;;;;47.47;18.73;;;0.50;99.90;;;;;;5074817;28;20053;-70
2022/11/21 04:21:26;;;;;;;43.63;18.52;;;0.40;99.90;;;;;;5074081;28;20059;-76
2022/11/21 04:23:52;;;;;;;40.97;17.00;;;0.30;99.90;;;;;;5039985;28;20048;-71
2022/11/21 04:26:17;;;;;;;39.38;16.75;;;0.20;99.90;;;;;;5023328;28;20467;-71
2022/11/21 04:28:43;;;;;;;43.35;15.80;;;0.10;99.90;;;;;;5056343;28;20049;-70
2022/11/21 04:31:09;;;;;;;36.88;16.27;;;0.00;99.90;;;;;;5074980;28;20440;-71
2022/11/21 04:33:34;;;;;;;40.20;16.08;;;-0.10;99.90;;;;;;5056437;28;20076;-72
2022/11/21 04:36:00;;;;;;;39.40;16.33;;;-0.10;99.90;;;;;;5074574;28;20044;-72
2022/11/21 04:38:26;;;;;;;38.97;16.08;;;-0.20;99.90;;;;;;5056210;28;20114;-72
2022/11/21 04:40:52;;;;;;;42.97;15.52;;;-0.30;99.90;;;;;;5074533;28;20074;-71
2022/11/21 04:43:18;;;;;;;39.13;15.75;;;-0.30;99.90;;;;;;5074509;28;20056;-71
2022/11/21 04:45:44;;;;;;;40.33;16.52;;;-0.40;99.90;;;;;;5073371;28;20422;-72
2022/11/21 04:48:10;;;;;;;39.60;16.35;;;-0.40;99.90;;;;;;5073740;28;20052;-71
2022/11/21 04:50:36;;;;;;;38.80;16.15;;;-0.40;99.90;;;;;;5073531;28;20044;-71
2022/11/21 04:53:02;;;;;;;41.83;16.85;;;-0.50;99.90;;;;;;5039661;28;20537;-71
2022/11/21 04:55:30;;;;;;;39.63;15.60;;;-0.40;99.90;;;;;;5055822;28;20373;-71
2022/11/21 04:57:56;;;;;;;41.45;15.88;;;-0.50;99.90;;;;;;5073541;28;20055;-71
2022/11/21 05:00:21;;;;;;;41.25;17.33;;;-0.50;99.90;;;;;;5056219;28;20044;-71
2022/11/21 05:02:47;;;;;;;44.42;16.52;;;-0.50;99.90;;;;;;5056307;28;20102;-71
2022/11/21 05:05:13;;;;;;;41.47;16.50;;;-0.50;99.90;;;;;;5056077;28;20048;-71
2022/11/21 05:07:39;;;;;;;42.28;16.85;;;-0.60;99.90;;;;;;5055635;28;20083;-71
2022/11/21 05:10:05;;;;;;;44.97;17.27;;;-0.60;99.90;;;;;;5073047;28;20130;-71
2022/11/21 05:15:16;;;;;;;43.42;17.50;;;-0.80;99.90;;;;;;5073471;28;20056;-71
2022/11/21 05:17:41;;;;;;;62.25;21.75;;;-0.80;99.90;;;;;;5039045;28;20062;-70
2022/11/21 05:20:08;;;;;;;48.20;19.15;;;-0.80;99.90;;;;;;5055209;28;20054;-70
2022/11/21 05:22:33;;;;;;;46.28;16.33;;;-0.80;99.90;;;;;;5038722;28;20481;-74
2022/11/21 05:24:59;;;;;;;42.78;17.00;;;-0.80;99.90;;;;;;5039002;28;20040;-70
2022/11/21 05:27:25;;;;;;;41.25;17.70;;;-0.90;99.90;;;;;;5072861;28;20048;-73
2022/11/21 05:29:51;;;;;;;40.50;16.90;;;-0.80;99.90;;;;;;5038727;28;20051;-70
2022/11/21 05:32:16;;;;;;;45.95;16.63;;;-0.90;99.90;;;;;;5055227;28;20044;-71
2022/11/21 05:34:42;;;;;;;43.58;18.55;;;-0.90;99.90;;;;;;5072746;28;20040;-70
2022/11/21 05:37:07;;;;;;;45.80;17.55;;;-0.90;99.90;;;;;;5073059;28;20044;-71
2022/11/21 05:39:33;;;;;;;47.33;17.77;;;-0.90;99.90;;;;;;5055158;28;20139;-71
2022/11/21 05:41:59;;;;;;;44.05;16.98;;;-1.00;99.90;;;;;;5073033;28;20049;-73
2022/11/21 05:44:24;;;;;;;43.38;16.98;;;-1.00;99.90;;;;;;5054549;28;20040;-71
2022/11/21 05:46:50;;;;;;;47.95;17.80;;;-1.00;99.90;;;;;;5072744;28;20167;-71
2022/11/21 05:49:16;;;;;;;44.08;17.50;;;-1.00;99.90;;;;;;5072950;28;20079;-70
2022/11/21 05:51:41;;;;;;;46.60;18.63;;;-1.00;99.90;;;;;;5072850;28;20114;-73
2022/11/21 05:54:10;;;;;;;45.22;17.25;;;-1.10;99.90;;;;;;5073468;28;20460;-70
2022/11/21 05:56:36;;;;;;;47.83;19.63;;;-1.10;99.90;;;;;;5072696;28;20040;-72
2022/11/21 05:59:02;;;;;;;44.45;17.38;;;-1.10;99.90;;;;;;5072592;28;20103;-73
2022/11/21 06:04:11;;;;;;;46.15;18.00;;;-1.10;99.90;;;;;;5041033;28;20464;-71
2022/11/21 06:06:37;;;;;;;52.30;19.63;;;-1.10;99.90;;;;;;5072134;28;20051;-74
2022/11/21 06:09:03;;;;;;;43.97;17.95;;;-1.10;99.90;;;;;;5072951;28;20554;-73
2022/11/21 06:11:29;;;;;;;48.10;18.63;;;-1.10;99.90;;;;;;5072694;28;20048;-76
2022/11/21 06:13:55;;;;;;;49.03;19.17;;;-1.20;99.90;;;;;;5072062;28;20113;-73
2022/11/21 06:16:21;;;;;;;51.70;18.58;;;-1.20;99.90;;;;;;5072202;28;20036;-73
2022/11/21 06:18:49;;;;;;;52.72;19.33;;;-1.20;99.90;;;;;;5072520;28;20049;-75
2022/11/21 06:21:19;;;;;;;52.42;19.15;;;-1.20;99.90;;;;;;5038282;28;20400;-73
2022/11/21 06:23:45;;;;;;;50.75;17.85;;;-1.20;99.90;;;;;;5072601;28;20178;-73
2022/11/21 06:26:14;;;;;;;50.10;19.90;;;-1.20;99.90;;;;;;5072730;28;20060;-73
2022/11/21 06:28:41;;;;;;;50.70;18.77;;;-1.30;99.90;;;;;;5071996;28;20102;-73
2022/11/21 06:31:16;;;;;;;48.67;19.00;;;-1.30;99.90;;;;;;5072279;28;20189;-72
2022/11/21 06:33:43;;;;;;;49.13;18.75;;;-1.30;99.90;;;;;;5072169;28;20097;-75
2022/11/21 06:36:11;;;;;;;51.42;18.92;;;-1.40;99.90;;;;;;5054809;28;20063;-73
2022/11/21 06:38:38;;;;;;;48.30;19.33;;;-1.30;99.90;;;;;;5072279;28;20401;-73
2022/11/21 06:41:24;;;;;;;45.38;17.92;;;-1.40;99.90;;;;;;5055042;28;20048;-73
2022/11/21 06:43:49;;;;;;;49.35;17.70;;;-1.40;99.90;;;;;;5054786;28;20407;-73
2022/11/21 06:46:15;;;;;;;54.42;21.13;;;-1.40;99.90;;;;;;5039707;28;20041;-73
2022/11/21 06:48:42;;;;;;;50.05;19.42;;;-1.30;99.90;;;;;;5025978;28;20102;-73
2022/11/21 06:51:16;;;;;;;46.97;18.83;;;-1.30;99.90;;;;;;5063371;28;20093;-76
2022/11/21 06:53:42;;;;;;;50.20;18.10;;;-1.40;99.90;;;;;;5080294;28;20051;-73
2022/11/21 06:56:07;;;;;;;46.05;17.60;;;-1.40;99.90;;;;;;5045284;28;20435;-73
2022/11/21 06:58:33;;;;;;;46.30;18.23;;;-1.50;99.90;;;;;;5061254;28;20052;-73
2022/11/21 07:01:09;;;;;;;45.40;16.88;;;-1.50;99.90;;;;;;5044393;28;20110;-73
2022/11/21 07:03:35;;;;;;;51.22;17.88;;;-1.40;99.90;;;;;;5077862;28;20067;-74
2022/11/21 07:06:02;;;;;;;48.63;18.00;;;-1.30;99.90;;;;;;5058179;28;20048;-74
2022/11/21 07:08:29;;;;;;;48.60;17.63;;;-1.30;99.90;;;;;;5076552;28;20123;-74
2022/11/21 07:10:55;;;;;;;45.42;17.38;;;-1.30;99.90;;;;;;5054891;28;20397;-75
2022/11/21 07:13:21;;;;;;;47.00;17.40;;;-1.20;99.90;;;;;;5055949;28;20084;-75
2022/11/21 07:15:52;;;;;;;41.58;17.48;;;-1.10;99.90;;;;;;5037802;28;20083;-75
2022/11/21 07:18:19;;;;;;;48.58;18.20;;;-1.10;99.90;;;;;;5054805;28;20052;-73
2022/11/21 07:20:45;;;;;;;57.17;20.70;;;-1.20;99.90;;;;;;5055404;28;20487;-73
2022/11/21 07:23:11;;;;;;;55.78;21.40;;;-1.10;99.90;;;;;;5038799;28;20060;-74
2022/11/21 07:25:38;;;;;;;51.28;18.52;;;-1.10;99.90;;;;;;5055799;28;20049;-73
2022/11/21 07:28:06;;;;;;;59.03;19.73;;;-1.10;99.90;;;;;;5056173;28;20054;-74
2022/11/21 07:30:32;;;;;;;55.97;19.65;;;-1.10;99.90;;;;;;5056569;28;20373;-73
2022/11/21 07:33:03;;;;;;;51.00;19.17;;;-1.00;99.90;;;;;;5055308;28;20491;-73
2022/11/21 07:35:29;;;;;;;55.90;19.48;;;-1.10;99.90;;;;;;5056066;28;20416;-73
2022/11/21 07:37:54;;;;;;;57.22;19.58;;;-1.10;99.90;;;;;;5055514;28;20049;-75
2022/11/21 07:40:21;;;;;;;55.42;20.90;;;-1.10;99.90;;;;;;5054410;28;20088;-76
2022/11/21 07:42:47;;;;;;;61.78;21.42;;;-1.10;99.90;;;;;;5055343;28;20135;-77
2022/11/21 07:45:13;;;;;;;60.03;20.85;;;-1.00;99.90;;;;;;5056128;28;20369;-74
2022/11/21 07:47:40;;;;;;;52.30;20.23;;;-1.10;99.90;;;;;;5055040;28;20131;-75
2022/11/21 07:50:07;;;;;;;56.47;21.23;;;-1.10;99.90;;;;;;5037927;28;20082;-74
2022/11/21 07:52:32;;;;;;;59.17;21.45;;;-1.00;99.90;;;;;;5054173;28;20123;-73
2022/11/21 07:55:01;;;;;;;54.83;20.70;;;-0.90;99.90;;;;;;5054045;28;20080;-74
2022/11/21 07:57:27;;;;;;;54.08;19.33;;;-0.80;99.90;;;;;;5055138;28;20378;-73
2022/11/21 07:59:53;;;;;;;99.28;21.25;;;-0.70;99.90;;;;;;5052655;28;20125;-73
2022/11/21 08:02:20;;;;;;;67.47;17.23;;;-0.70;99.90;;;;;;5055166;28;20088;-73
2022/11/21 08:04:47;;;;;;;123.38;25.92;;;-0.50;99.90;;;;;;5054803;28;20493;-74
2022/11/21 08:07:14;;;;;;;198.32;25.40;;;-0.50;99.90;;;;;;5055128;28;20049;-73
2022/11/21 08:09:40;;;;;;;112.68;20.83;;;-0.50;99.90;;;;;;5056190;28;20045;-76
2022/11/21 08:12:05;;;;;;;142.85;21.90;;;-0.50;99.90;;;;;;5041332;28;20535;-77
2022/11/21 08:14:32;;;;;;;149.38;22.48;;;-0.50;99.90;;;;;;5075004;28;20092;-73
2022/11/21 08:16:58;;;;;;;243.00;26.90;;;-0.40;99.90;;;;;;5057997;28;20044;-74
2022/11/21 08:19:24;;;;;;;179.55;24.02;;;-0.40;99.90;;;;;;5057560;28;20048;-75
2022/11/21 08:21:49;;;;;;;138.15;22.98;;;-0.40;99.90;;;;;;5040631;28;20053;-72
2022/11/21 08:24:16;;;;;;;223.73;23.50;;;-0.40;99.90;;;;;;5057484;28;20055;-74
2022/11/21 08:26:43;;;;;;;169.32;23.52;;;-0.30;99.90;;;;;;5075570;28;20041;-72
2022/11/21 08:29:10;;;;;;;143.25;21.33;;;-0.30;99.90;;;;;;5040249;28;20075;-74
2022/11/21 08:31:36;;;;;;;168.63;21.90;;;-0.30;99.90;;;;;;5056848;28;20123;-73
2022/11/21 08:34:03;;;;;;;109.80;21.83;;;-0.30;99.90;;;;;;5074573;28;20049;-73
2022/11/21 08:36:29;;;;;;;116.47;22.90;;;-0.30;99.90;;;;;;5056902;28;20048;-73
2022/11/21 08:38:54;;;;;;;79.55;18.40;;;-0.20;99.90;;;;;;5074682;28;20074;-73
2022/11/21 08:44:05;;;;;;;142.38;21.02;;;-0.10;99.90;;;;;;5059148;28;20052;-73
2022/11/21 08:46:35;;;;;;;73.72;17.48;;;-0.10;99.90;;;;;;5073808;28;20473;-73
2022/11/21 08:49:02;;;;;;;175.73;23.83;;;0.00;99.90;;;;;;5040776;28;20072;-74
2022/11/21 08:51:28;;;;;;;123.77;21.40;;;0.10;99.90;;;;;;5074358;28;20051;-74
2022/11/21 08:53:53;;;;;;;110.13;18.27;;;0.10;99.90;;;;;;5074096;28;20671;-73
2022/11/21 08:56:19;;;;;;;112.70;19.70;;;0.20;99.90;;;;;;5039830;28;20457;-73
2022/11/21 08:58:45;;;;;;;133.88;20.55;;;0.20;99.90;;;;;;5074126;28;20098;-76
2022/11/21 09:01:10;;;;;;;90.55;18.30;;;0.30;99.90;;;;;;5056297;28;20488;-74
2022/11/21 09:03:36;;;;;;;71.88;17.90;;;0.40;99.90;;;;;;5074377;28;20127;-74
2022/11/21 09:06:02;;;;;;;96.97;20.25;;;0.40;99.90;;;;;;5073952;28;20040;-74
2022/11/21 09:08:29;;;;;;;120.80;20.73;;;0.50;99.90;;;;;;5056022;28;20063;-74
2022/11/21 09:10:55;;;;;;;57.75;16.33;;;0.60;99.90;;;;;;5055317;28;20450;-73
2022/11/21 09:13:20;;;;;;;79.68;17.77;;;0.70;99.90;;;;;;5055352;28;20078;-74
2022/11/21 09:18:31;;;;;;;49.63;15.85;;;0.80;99.90;;;;;;5059074;28;20461;-73
2022/11/21 09:20:57;;;;;;;45.65;14.75;;;0.90;99.90;;;;;;5056613;28;20041;-75
2022/11/21 09:23:22;;;;;;;47.70;14.55;;;0.90;99.90;;;;;;5073587;28;20041;-74
2022/11/21 09:25:48;;;;;;;42.03;14.77;;;1.00;99.90;;;;;;5073519;28;20090;-74
2022/11/21 09:28:14;;;;;;;35.72;13.35;;;1.10;99.90;;;;;;5074100;28;20165;-78
2022/11/21 09:30:41;;;;;;;47.75;18.60;;;1.10;99.90;;;;;;5073482;28;20051;-75
2022/11/21 09:33:11;;;;;;;35.92;13.77;;;1.20;99.90;;;;;;5073390;28;20048;-74
2022/11/21 09:35:37;;;;;;;32.92;12.30;;;1.30;99.90;;;;;;5073479;28;20055;-74
2022/11/21 09:38:03;;;;;;;39.50;14.15;;;1.30;99.90;;;;;;5073215;28;20056;-74
2022/11/21 09:40:30;;;;;;;37.83;13.40;;;1.40;99.90;;;;;;5073080;28;20044;-74
2022/11/21 09:43:07;;;;;;;39.45;14.70;;;1.40;99.90;;;;;;5073166;28;20084;-75
2022/11/21 09:45:44;;;;;;;38.90;14.80;;;1.50;99.90;;;;;;5073130;28;20040;-73
2022/11/21 09:48:13;;;;;;;41.33;14.88;;;1.50;99.90;;;;;;5073505;28;20090;-72
2022/11/21 09:50:43;;;;;;;37.70;13.65;;;1.60;99.90;;;;;;5073136;28;20044;-73
2022/11/21 09:53:16;;;;;;;34.45;13.13;;;1.70;99.90;;;;;;5039135;28;20098;-75
2022/11/21 09:55:48;;;;;;;32.90;13.57;;;1.70;99.90;;;;;;5054928;28;20116;-74
2022/11/21 09:58:47;;;;;;;31.20;12.20;;;1.70;99.90;;;;;;5072706;28;20048;-73
2022/11/21 10:01:14;;;;;;;27.88;10.88;;;1.80;99.90;;;;;;5073076;28;20052;-74
2022/11/21 10:03:44;;;;;;;36.38;13.70;;;1.80;99.90;;;;;;5038131;28;20460;-73
2022/11/21 10:06:27;;;;;;;37.63;16.38;;;1.80;99.90;;;;;;5021578;28;20411;-75
2022/11/21 10:09:14;;;;;;;35.33;13.57;;;1.80;99.90;;;;;;5073469;28;20080;-72
2022/11/21 10:14:45;;;;;;;22.02;8.40;;;2.00;99.90;;;;;;5073154;28;20045;-73
2022/11/21 10:17:23;;;;;;;34.08;12.50;;;2.10;99.90;;;;;;5073663;28;20413;-72
2022/11/21 10:19:55;;;;;;;32.00;12.70;;;2.10;99.90;;;;;;5055261;28;20048;-72
2022/11/21 10:22:39;;;;;;;36.28;15.05;;;2.10;99.90;;;;;;5072475;28;20045;-74
2022/11/21 10:25:29;;;;;;;34.08;12.80;;;2.10;99.90;;;;;;5055715;28;20049;-73
2022/11/21 10:28:03;;;;;;;29.88;12.50;;;2.20;99.90;;;;;;5055444;28;20572;-73
2022/11/21 10:30:29;;;;;;;37.10;15.30;;;2.10;99.90;;;;;;5055081;28;20052;-74
2022/11/21 10:33:00;;;;;;;38.00;15.30;;;2.10;99.90;;;;;;5054891;28;20045;-74
2022/11/21 10:35:44;;;;;;;33.00;13.20;;;2.00;99.90;;;;;;5073159;28;20119;-74
2022/11/21 10:38:19;;;;;;;34.65;13.73;;;2.10;99.90;;;;;;5072646;28;20091;-74
2022/11/21 10:40:49;;;;;;;37.13;14.98;;;2.00;99.90;;;;;;5055288;28;20488;-74
2022/11/21 10:46:32;;;;;;;43.22;19.80;;;2.10;99.90;;;;;;5073081;28;20049;-73
2022/11/21 10:49:00;;;;;;;34.90;15.05;;;2.20;99.90;;;;;;5054539;28;20075;-72
2022/11/21 10:51:41;;;;;;;34.08;13.40;;;2.20;99.90;;;;;;5073291;28;20048;-72
2022/11/21 10:56:58;;;;;;;29.95;11.70;;;2.30;99.90;;;;;;5055555;28;20111;-72
2022/11/21 10:59:26;;;;;;;33.40;12.73;;;2.30;99.90;;;;;;5054617;28;20063;-74
2022/11/21 11:02:22;;;;;;;30.52;12.05;;;2.40;99.90;;;;;;5038136;28;20135;-72
2022/11/21 11:04:47;;;;;;;34.03;12.52;;;2.50;99.90;;;;;;5037812;28;20055;-74
2022/11/21 11:07:27;;;;;;;34.03;13.73;;;2.60;99.90;;;;;;5038109;28;20139;-73
2022/11/21 11:10:14;;;;;;;32.97;12.48;;;2.60;99.90;;;;;;5072398;28;20045;-74
2022/11/21 11:15:26;;;;;;;30.15;12.20;;;2.80;99.90;;;;;;5072867;28;20420;-73
2022/11/21 11:18:02;;;;;;;24.70;9.52;;;2.80;99.90;;;;;;5056306;28;20076;-73
2022/11/21 11:20:46;;;;;;;24.55;10.05;;;3.00;99.90;;;;;;5058753;28;20049;-72
2022/11/21 11:23:30;;;;;;;32.10;12.23;;;3.00;99.90;;;;;;5057758;28;20052;-72
2022/11/21 11:25:58;;;;;;;28.80;11.27;;;3.20;99.90;;;;;;5056559;28;20055;-73
2022/11/21 11:28:26;;;;;;;31.17;12.15;;;3.10;99.90;;;;;;5073195;28;20054;-76
2022/11/21 11:30:54;;;;;;;;;;;3.30;99.90;;;;;;5075350;28;20043;-70
2022/11/21 11:33:28;;;;;;;31.17;11.23;;;3.30;99.90;;;;;;5074496;28;20087;-72
2022/11/21 11:35:57;;;;;;;31.40;12.40;;;3.40;99.90;;;;;;5079255;28;20144;-71
2022/11/21 11:38:28;;;;;;;33.03;12.90;;;3.40;99.90;;;;;;5079510;28;20102;-73
2022/11/21 11:40:55;;;;;;;33.67;13.30;;;3.50;99.90;;;;;;5078538;28;20083;-71
2022/11/21 11:50:10;;;;;;;37.03;13.60;;;3.40;99.90;;;;;;5075492;28;20056;-72
2022/11/21 11:52:51;;;;;;;32.63;13.07;;;3.40;99.90;;;;;;5075764;28;20044;-72
2022/11/21 11:55:34;;;;;;;35.03;14.00;;;3.50;99.90;;;;;;5058908;28;20044;-73
2022/11/21 11:58:02;;;;;;;37.10;14.35;;;3.50;99.90;;;;;;5075501;28;20087;-71
2022/11/21 12:00:55;;;;;;;34.47;13.85;;;3.50;99.90;;;;;;5057463;28;20040;-71
2022/11/21 12:04:02;;;;;;;33.10;12.13;;;3.60;99.90;;;;;;5075830;28;20052;-73
2022/11/21 12:06:41;;;;;;;33.65;12.93;;;3.70;99.90;;;;;;5014140;28;20098;-72
2022/11/21 12:09:20;;;;;;;35.17;13.20;;;3.70;99.90;;;;;;5041631;28;20112;-72
2022/11/21 12:12:07;;;;;;;36.20;15.20;;;3.80;99.90;;;;;;5075535;28;20064;-74
2022/11/21 12:18:07;;;;;;;32.10;12.32;;;4.00;99.90;;;;;;5075132;28;20484;-72
2022/11/21 12:20:54;;;;;;;29.63;11.15;;;4.00;99.90;;;;;;5023130;28;20473;-71
2022/11/21 12:23:23;;;;;;;37.50;14.23;;;4.20;99.90;;;;;;5075023;28;20055;-70
2022/11/21 12:26:32;;;;;;;32.00;12.32;;;4.20;99.90;;;;;;5074742;28;20049;-72
2022/11/21 12:29:22;;;;;;;30.55;13.18;;;4.30;99.90;;;;;;5047583;28;20060;-74
2022/11/21 12:32:01;;;;;;;30.38;11.95;;;4.30;99.90;;;;;;5057404;28;20044;-71
2022/11/21 12:34:41;;;;;;;34.03;13.48;;;4.30;99.90;;;;;;5075082;28;20056;-72
2022/11/21 12:37:28;;;;;;;35.03;14.00;;;4.20;99.90;;;;;;5075156;28;20102;-73
2022/11/21 12:40:25;;;;;;;36.25;12.65;;;4.10;99.90;;;;;;5056605;28;20052;-72
2022/11/21 12:43:06;;;;;;;;;;;4.10;99.90;;;;;;5056808;28;20044;-74
2022/11/21 12:45:51;;;;;;;34.05;13.07;;;4.20;99.90;;;;;;5073707;28;19975;-72
2022/11/21 12:54:45;;;;;;;38.78;13.52;;;4.30;99.90;;;;;;5040000;28;20503;-73
2022/11/21 12:57:16;;;;;;;39.20;13.85;;;4.30;99.90;;;;;;5074011;28;20044;-73
2022/11/21 13:00:13;;;;;;;37.78;15.07;;;4.20;99.90;;;;;;5074331;28;20052;-72
2022/11/21 13:03:16;;;;;;;37.30;14.13;;;4.00;99.90;;;;;;5056131;28;20048;-72
2022/11/21 13:05:49;;;;;;;41.45;13.70;;;4.00;99.90;;;;;;5056049;28;20453;-73
2022/11/21 13:08:21;;;;;;;41.53;14.57;;;4.00;99.90;;;;;;5039675;28;20117;-80
2022/11/21 13:14:19;;;;;;;41.85;15.38;;;3.90;99.90;;;;;;5073506;28;20052;-71
2022/11/21 13:17:08;;;;;;;42.33;14.85;;;3.90;99.90;;;;;;5052252;28;20060;-73
2022/11/21 13:19:50;;;;;;;42.65;15.45;;;3.80;99.90;;;;;;5016768;28;20509;-72
2022/11/21 13:22:34;;;;;;;42.50;15.13;;;3.90;99.90;;;;;;5073475;28;20048;-73
2022/11/21 13:25:01;;;;;;;39.28;13.80;;;3.90;99.90;;;;;;5055754;28;20041;-74
2022/11/21 13:27:27;;;;;;;39.33;14.65;;;3.90;99.90;;;;;;5073437;28;20097;-72